createdAt,value
2022-10-14T00:04:38.765Z,19
2022-10-14T00:09:43.612Z,19
2022-10-14T00:14:48.771Z,19
2022-10-14T00:19:54.143Z,19
2022-10-14T00:24:59.274Z,18.9
2022-10-14T00:30:04.732Z,19
2022-10-14T00:35:10.172Z,19
2022-10-14T00:40:15.565Z,19
2022-10-14T00:45:20.725Z,19
2022-10-14T00:50:26.181Z,19
2022-10-14T00:55:31.602Z,19
2022-10-14T01:00:36.768Z,18.9
2022-10-14T01:05:42.278Z,19
2022-10-14T01:10:47.682Z,19
2022-10-14T01:15:53.115Z,19
2022-10-14T01:20:58.508Z,19
2022-10-14T01:26:03.637Z,19
2022-10-14T01:31:08.790Z,19
2022-10-14T01:36:14.192Z,19
2022-10-14T01:41:19.309Z,19
2022-10-14T01:46:24.195Z,19
2022-10-14T01:51:29.611Z,19
2022-10-14T01:56:38.217Z,19
2022-10-14T02:01:45.958Z,19
2022-10-14T02:06:51.487Z,19.1
2022-10-14T02:11:56.877Z,19
2022-10-14T02:17:02.051Z,19
2022-10-14T02:22:07.421Z,19
2022-10-14T02:27:12.290Z,19
2022-10-14T02:32:17.434Z,19
2022-10-14T02:37:22.846Z,19
2022-10-14T02:42:27.963Z,19
2022-10-14T02:47:33.110Z,19.1
2022-10-14T02:52:38.489Z,19
2022-10-14T02:57:43.905Z,19.1
2022-10-14T03:02:49.324Z,19
2022-10-14T03:07:54.727Z,19
2022-10-14T03:12:59.854Z,19
2022-10-14T03:18:04.737Z,19
2022-10-14T03:23:10.116Z,19
2022-10-14T03:28:15.585Z,19
2022-10-14T03:33:22.798Z,19
2022-10-14T03:38:31.290Z,19
2022-10-14T03:43:36.684Z,19
2022-10-14T03:48:42.112Z,19
2022-10-14T03:53:47.489Z,19
2022-10-14T03:58:52.630Z,19
2022-10-14T04:03:58.047Z,19
2022-10-14T04:09:03.445Z,19
2022-10-14T04:14:08.282Z,19
2022-10-14T04:19:13.442Z,19
2022-10-14T04:24:18.813Z,19
2022-10-14T04:29:23.926Z,19
2022-10-14T04:34:29.069Z,19
2022-10-14T04:39:34.471Z,19.1
2022-10-14T04:44:39.873Z,19
2022-10-14T04:49:45.357Z,19
2022-10-14T04:54:50.745Z,19.1
2022-10-14T04:59:55.875Z,19
2022-10-14T05:05:01.301Z,19
2022-10-14T05:10:06.708Z,19
2022-10-14T05:15:12.089Z,19.1
2022-10-14T05:20:17.520Z,19
2022-10-14T05:25:22.899Z,19
2022-10-14T05:30:32.263Z,19
2022-10-14T05:35:57.940Z,19.1
2022-10-14T05:41:04.909Z,19
2022-10-14T05:46:10.303Z,19.1
2022-10-14T05:51:15.725Z,19.1
2022-10-14T05:56:21.104Z,19
2022-10-14T06:01:26.223Z,19.1
2022-10-14T06:06:31.370Z,19.1
2022-10-14T06:11:36.766Z,19.1
2022-10-14T06:16:42.156Z,19.1
2022-10-14T06:21:47.311Z,19.1
2022-10-14T06:26:52.735Z,19
2022-10-14T06:31:57.847Z,19
2022-10-14T06:37:03.060Z,19
2022-10-14T06:42:12.861Z,19
2022-10-14T06:47:18.405Z,19.1
2022-10-14T06:52:23.822Z,19.1
2022-10-14T06:57:29.749Z,19
2022-10-14T07:02:35.142Z,19
2022-10-14T07:07:40.573Z,19
2022-10-14T07:12:45.957Z,19
2022-10-14T07:17:51.118Z,19.1
2022-10-14T07:22:56.527Z,19.1
2022-10-14T07:28:01.923Z,19.1
2022-10-14T07:33:06.773Z,19.1
2022-10-14T07:38:12.201Z,19.1
2022-10-14T07:43:17.580Z,19.1
2022-10-14T07:48:27.165Z,19.1
2022-10-14T07:53:43.665Z,19.1
2022-10-14T07:58:49.075Z,19.1
2022-10-14T08:03:54.184Z,19.1
2022-10-14T08:08:59.600Z,19.1
2022-10-14T08:14:05.138Z,19.2
2022-10-14T08:19:14.070Z,19.1
2022-10-14T08:24:20.018Z,19.1
2022-10-14T08:29:25.441Z,19.1
2022-10-14T08:34:30.835Z,19.1
2022-10-14T08:39:35.991Z,19.1
2022-10-14T08:44:41.411Z,19.2
2022-10-14T08:49:46.813Z,19.2
2022-10-14T08:54:52.238Z,19.2
2022-10-14T08:59:57.650Z,19.2
2022-10-14T09:05:03.066Z,19.2
2022-10-14T09:10:08.502Z,19.2
2022-10-14T09:15:13.999Z,19.2
2022-10-14T09:20:19.139Z,19.2
2022-10-14T09:25:24.483Z,19.2
2022-10-14T09:30:29.875Z,19.3
2022-10-14T09:35:34.997Z,19.3
2022-10-14T09:40:40.432Z,19.3
2022-10-14T09:45:45.800Z,19.3
2022-10-14T09:50:51.227Z,19.3
2022-10-14T09:55:56.635Z,19.3
2022-10-14T10:01:02.026Z,19.3
2022-10-14T10:06:07.184Z,19.4
2022-10-14T10:11:12.329Z,19.4
2022-10-14T10:16:17.731Z,19.4
2022-10-14T10:21:23.135Z,19.4
2022-10-14T10:26:28.284Z,19.4
2022-10-14T10:31:33.798Z,19.4
2022-10-14T10:36:39.455Z,19.4
2022-10-14T10:41:44.901Z,19.4
2022-10-14T10:46:50.307Z,19.4
2022-10-14T10:51:55.455Z,19.5
2022-10-14T10:57:00.312Z,19.5
2022-10-14T11:02:05.711Z,19.5
2022-10-14T11:07:10.830Z,19.5
2022-10-14T11:12:16.291Z,19.5
2022-10-14T11:17:22.081Z,19.5
2022-10-14T11:22:28.687Z,19.5
2022-10-14T11:27:33.826Z,19.5
2022-10-14T11:32:39.280Z,19.5
2022-10-14T11:37:44.693Z,19.5
2022-10-14T11:42:49.860Z,19.5
2022-10-14T11:47:55.249Z,19.5
2022-10-14T11:53:00.387Z,19.6
2022-10-14T11:58:05.824Z,19.6
2022-10-14T12:03:11.309Z,19.6
2022-10-14T12:08:16.831Z,19.6
2022-10-14T12:13:22.306Z,19.6
2022-10-14T12:18:27.704Z,19.6
2022-10-14T12:23:32.858Z,19.6
2022-10-14T12:28:38.329Z,19.6
2022-10-14T12:33:43.840Z,19.6
2022-10-14T12:38:48.725Z,19.6
2022-10-14T12:43:54.161Z,19.6
2022-10-14T12:48:59.550Z,19.6
2022-10-14T12:54:04.420Z,19.6
2022-10-14T12:59:09.929Z,19.5
2022-10-14T13:04:17.404Z,19.6
2022-10-14T13:09:25.580Z,19.5
2022-10-14T13:14:30.749Z,19.5
2022-10-14T13:19:36.127Z,19.6
2022-10-14T13:24:41.597Z,19.6
2022-10-14T13:29:47.013Z,19.6
2022-10-14T13:34:52.422Z,19.6
2022-10-14T13:39:57.582Z,19.6
2022-10-14T13:45:03.116Z,19.6
2022-10-14T13:50:08.544Z,19.6
2022-10-14T13:55:13.765Z,19.6
2022-10-14T14:05:54.346Z,19.5
2022-10-14T14:11:15.989Z,19.6
2022-10-14T14:16:23.463Z,19.6
2022-10-14T14:21:28.859Z,19.6
2022-10-14T14:26:34.268Z,19.6
2022-10-14T14:32:01.765Z,19.6
2022-10-14T14:43:00.179Z,19.6
2022-10-14T14:48:05.423Z,19.6
2022-10-14T14:53:10.862Z,19.6
2022-10-14T14:58:15.974Z,19.7
2022-10-14T15:03:21.234Z,19.8
2022-10-14T15:08:26.603Z,19.7
2022-10-14T15:13:31.726Z,19.7
2022-10-14T15:18:37.188Z,19.6
2022-10-14T15:23:42.725Z,19.6
2022-10-14T15:28:48.163Z,19.6
2022-10-14T15:33:53.860Z,19.6
2022-10-14T15:38:59.296Z,19.6
2022-10-14T15:44:04.725Z,19.6
2022-10-14T15:49:10.152Z,19.6
2022-10-14T15:54:15.557Z,19.6
2022-10-14T15:59:20.678Z,19.6
2022-10-14T16:04:25.826Z,19.6
2022-10-14T16:09:31.235Z,19.6
2022-10-14T16:14:36.365Z,19.6
2022-10-14T16:19:41.782Z,19.6
2022-10-14T16:24:47.273Z,19.6
2022-10-14T16:29:52.681Z,19.5
2022-10-14T16:34:58.116Z,19.5
2022-10-14T16:40:03.518Z,19.5
2022-10-14T16:45:08.940Z,19.5
2022-10-14T16:50:14.077Z,19.5
2022-10-14T16:55:19.535Z,19.5
2022-10-14T17:00:24.922Z,19.5
2022-10-14T17:05:30.349Z,19.5
2022-10-14T17:10:35.730Z,19.5
2022-10-14T17:15:40.862Z,19.5
2022-10-14T17:20:46.295Z,19.5
2022-10-14T17:25:51.705Z,19.5
2022-10-14T17:30:57.100Z,19.5
2022-10-14T17:36:02.530Z,19.5
2022-10-14T17:41:07.985Z,19.5
2022-10-14T17:46:13.168Z,19.5
2022-10-14T17:51:18.333Z,19.5
2022-10-14T17:56:23.783Z,19.5
2022-10-14T18:01:37.610Z,19.5
2022-10-14T18:07:07.153Z,19.5
2022-10-14T18:12:12.538Z,19.5
2022-10-14T18:17:18.386Z,19.5
2022-10-14T18:22:23.541Z,19.5
2022-10-14T18:27:28.964Z,19.5
2022-10-14T18:32:34.371Z,19.5
2022-10-14T18:37:39.821Z,19.5
2022-10-14T18:42:45.211Z,19.5
2022-10-14T18:47:50.346Z,19.5
2022-10-14T18:52:55.765Z,19.5
2022-10-14T18:58:01.159Z,19.5
2022-10-14T19:03:06.552Z,19.5
2022-10-14T19:08:11.995Z,19.5
2022-10-14T19:13:17.404Z,19.5
2022-10-14T19:18:22.895Z,19.5
2022-10-14T19:23:28.430Z,19.5
2022-10-14T19:28:33.878Z,19.4
2022-10-14T19:33:39.139Z,19.5
2022-10-14T19:38:44.589Z,19.5
2022-10-14T19:43:49.977Z,19.5
2022-10-14T19:48:55.116Z,19.5
2022-10-14T19:54:00.559Z,19.5
2022-10-14T19:59:06.009Z,19.5
2022-10-14T20:04:11.154Z,19.5
2022-10-14T20:09:16.329Z,19.4
2022-10-14T20:14:21.708Z,19.5
2022-10-14T20:19:27.112Z,19.5
2022-10-14T20:24:32.713Z,19.5
2022-10-14T20:29:38.247Z,19.5
2022-10-14T20:34:43.357Z,19.5
2022-10-14T20:39:48.872Z,19.5
2022-10-14T20:44:54.271Z,19.5
2022-10-14T20:49:59.681Z,19.5
2022-10-14T20:55:04.862Z,19.5
2022-10-14T21:00:10.234Z,19.5
2022-10-14T21:05:15.427Z,19.5
2022-10-14T21:10:20.283Z,19.5
2022-10-14T21:15:25.773Z,19.6
2022-10-14T21:20:30.889Z,19.5
2022-10-14T21:25:36.346Z,19.6
2022-10-14T21:30:41.721Z,19.6
2022-10-14T21:35:47.123Z,19.6
2022-10-14T21:40:52.295Z,19.6
2022-10-14T21:45:57.727Z,19.5
2022-10-14T21:51:03.141Z,19.5
2022-10-14T21:56:08.270Z,19.6
2022-10-14T22:01:13.691Z,19.6
2022-10-14T22:06:18.873Z,19.5
2022-10-14T22:11:24.292Z,19.6
2022-10-14T22:16:29.691Z,19.6
2022-10-14T22:21:34.823Z,19.5
2022-10-14T22:26:39.781Z,19.5
2022-10-14T22:31:45.269Z,19.6
2022-10-14T22:36:50.450Z,19.6
2022-10-14T22:41:55.641Z,19.6
2022-10-14T22:47:01.031Z,19.5
2022-10-14T22:52:06.440Z,19.6
2022-10-14T22:57:11.592Z,19.5
2022-10-14T23:02:16.976Z,19.5
2022-10-14T23:07:22.113Z,19.5
2022-10-14T23:12:27.563Z,19.5
2022-10-14T23:17:32.976Z,19.5
2022-10-14T23:22:38.364Z,19.5
2022-10-14T23:27:43.849Z,19.5
2022-10-14T23:32:49.352Z,19.5
2022-10-14T23:37:54.756Z,19.5
2022-10-14T23:43:00.183Z,19.5
2022-10-14T23:48:05.581Z,19.5
2022-10-14T23:53:10.718Z,19.5
2022-10-14T23:58:16.163Z,19.5
